createdAt,value
2023-03-29T00:01:35.133Z,3.57
2023-03-29T00:04:04.479Z,3.60
2023-03-29T00:06:33.429Z,3.46
2023-03-29T00:09:01.962Z,3.28
2023-03-29T00:11:28.630Z,3.33
2023-03-29T00:13:55.345Z,3.58
2023-03-29T00:16:22.354Z,3.48
2023-03-29T00:18:49.161Z,3.59
2023-03-29T00:21:15.788Z,3.60
2023-03-29T00:23:42.459Z,3.59
2023-03-29T00:26:09.069Z,3.63
2023-03-29T00:28:35.671Z,3.54
2023-03-29T00:31:16.208Z,3.57
2023-03-29T00:33:43.069Z,3.52
2023-03-29T00:36:11.345Z,3.47
2023-03-29T00:38:38.864Z,3.54
2023-03-29T00:41:07.054Z,3.47
2023-03-29T00:43:59.512Z,3.24
2023-03-29T00:46:28.032Z,3.24
2023-03-29T00:49:02.647Z,3.15
2023-03-29T00:51:32.921Z,3.31
2023-03-29T00:54:03.540Z,3.39
2023-03-29T00:56:37.215Z,3.46
2023-03-29T00:59:24.718Z,3.45
2023-03-29T01:01:57.197Z,3.40
2023-03-29T01:04:36.521Z,3.41
2023-03-29T01:07:18.749Z,3.39
2023-03-29T01:09:51.047Z,3.20
2023-03-29T01:12:22.544Z,3.28
2023-03-29T01:14:54.597Z,3.35
2023-03-29T01:17:21.958Z,3.23
2023-03-29T01:19:58.349Z,3.15
2023-03-29T01:23:04.011Z,3.16
2023-03-29T01:26:01.104Z,3.08
2023-03-29T01:28:37.083Z,3.09
2023-03-29T01:31:17.220Z,3.17
2023-03-29T01:33:55.216Z,3.16
2023-03-29T01:36:29.188Z,3.04
2023-03-29T01:39:06.415Z,3.08
2023-03-29T01:41:41.074Z,3.16
2023-03-29T01:44:17.927Z,3.10
2023-03-29T01:46:53.175Z,3.11
2023-03-29T01:49:28.860Z,3.11
2023-03-29T01:52:01.716Z,3.28
2023-03-29T01:55:26.921Z,3.20
2023-03-29T01:57:56.426Z,3.30
2023-03-29T02:00:27.790Z,3.28
2023-03-29T02:03:00.486Z,3.19
2023-03-29T02:05:30.686Z,3.33
2023-03-29T02:08:00.317Z,3.35
2023-03-29T02:10:28.228Z,3.28
2023-03-29T02:12:55.450Z,3.42
2023-03-29T02:15:23.536Z,3.31
2023-03-29T02:17:51.224Z,3.30
2023-03-29T02:20:22.690Z,3.41
2023-03-29T02:23:06.360Z,3.42
2023-03-29T02:25:33.221Z,3.37
2023-03-29T02:28:01.010Z,3.37
2023-03-29T02:30:53.720Z,3.33
2023-03-29T02:33:46.761Z,3.32
2023-03-29T02:36:19.886Z,3.33
2023-03-29T02:38:46.541Z,3.21
2023-03-29T02:41:13.639Z,3.29
2023-03-29T02:43:42.374Z,3.31
2023-03-29T02:46:11.657Z,3.27
2023-03-29T02:48:38.710Z,3.29
2023-03-29T02:51:21.590Z,3.25
2023-03-29T02:53:59.437Z,3.21
2023-03-29T02:56:25.963Z,3.27
2023-03-29T02:58:52.528Z,3.25
2023-03-29T03:01:20.622Z,3.26
2023-03-29T03:03:48.232Z,3.28
2023-03-29T03:06:15.471Z,3.31
2023-03-29T03:08:42.303Z,3.33
2023-03-29T03:11:08.875Z,3.28
2023-03-29T03:13:35.432Z,3.37
2023-03-29T03:16:02.105Z,3.39
2023-03-29T03:18:28.829Z,3.37
2023-03-29T03:20:57.142Z,3.37
2023-03-29T03:23:24.233Z,3.31
2023-03-29T03:25:52.779Z,3.39
2023-03-29T03:28:20.126Z,3.25
2023-03-29T03:30:46.686Z,3.25
2023-03-29T03:33:13.234Z,3.28
2023-03-29T03:35:39.872Z,3.31
2023-03-29T03:38:06.386Z,3.30
2023-03-29T03:40:33.442Z,3.33
2023-03-29T03:43:00.015Z,3.32
2023-03-29T03:45:26.685Z,3.38
2023-03-29T03:47:53.390Z,3.39
2023-03-29T03:50:19.957Z,3.47
2023-03-29T03:52:46.709Z,3.40
2023-03-29T03:55:13.290Z,3.43
2023-03-29T03:57:39.941Z,3.50
2023-03-29T04:00:20.088Z,3.47
2023-03-29T04:02:49.035Z,3.50
2023-03-29T04:05:16.453Z,3.47
2023-03-29T04:07:43.443Z,3.51
2023-03-29T04:10:11.277Z,3.50
2023-03-29T04:12:38.974Z,3.41
2023-03-29T04:15:06.811Z,3.48
2023-03-29T04:17:33.608Z,3.36
2023-03-29T04:20:02.314Z,3.46
2023-03-29T04:22:29.021Z,3.47
2023-03-29T04:24:55.782Z,3.38
2023-03-29T04:27:22.360Z,3.35
2023-03-29T04:29:49.061Z,3.43
2023-03-29T04:32:15.551Z,3.43
2023-03-29T04:34:42.062Z,3.45
2023-03-29T04:37:10.617Z,3.38
2023-03-29T04:39:38.058Z,3.42
2023-03-29T04:42:05.764Z,3.46
2023-03-29T04:44:35.220Z,3.39
2023-03-29T04:47:01.780Z,3.40
2023-03-29T04:49:29.094Z,3.46
2023-03-29T04:51:55.703Z,3.50
2023-03-29T04:54:22.326Z,3.43
2023-03-29T04:56:48.938Z,3.47
2023-03-29T04:59:15.532Z,3.51
2023-03-29T05:01:42.166Z,3.43
2023-03-29T05:04:10.208Z,3.53
2023-03-29T05:06:38.722Z,3.45
2023-03-29T05:09:05.330Z,3.50
2023-03-29T05:11:31.984Z,3.47
2023-03-29T05:14:02.546Z,3.50
2023-03-29T05:16:32.893Z,3.51
2023-03-29T05:18:59.641Z,3.50
2023-03-29T05:21:26.691Z,3.53
2023-03-29T05:23:53.410Z,3.50
2023-03-29T05:26:20.570Z,3.62
2023-03-29T05:28:47.146Z,3.56
2023-03-29T05:31:16.700Z,3.65
2023-03-29T05:33:44.023Z,3.65
2023-03-29T05:36:13.918Z,3.64
2023-03-29T05:38:41.306Z,3.70
2023-03-29T05:41:08.638Z,3.75
2023-03-29T05:43:35.224Z,3.82
2023-03-29T05:46:01.836Z,3.90
2023-03-29T05:48:28.868Z,3.89
2023-03-29T05:50:56.485Z,3.94
2023-03-29T05:53:25.071Z,3.96
2023-03-29T05:55:51.833Z,3.90
2023-03-29T05:58:19.189Z,4.08
2023-03-29T06:00:46.440Z,4.04
2023-03-29T06:03:22.019Z,4.16
2023-03-29T06:05:55.161Z,4.22
2023-03-29T06:08:22.780Z,4.22
2023-03-29T06:10:50.424Z,4.31
2023-03-29T06:13:17.521Z,4.34
2023-03-29T06:15:44.055Z,4.27
2023-03-29T06:18:11.012Z,4.32
2023-03-29T06:20:37.614Z,4.40
2023-03-29T06:23:04.174Z,4.38
2023-03-29T06:25:30.717Z,4.37
2023-03-29T06:27:57.757Z,4.47
2023-03-29T06:30:25.069Z,4.46
2023-03-29T06:32:51.681Z,4.45
2023-03-29T06:35:18.529Z,4.53
2023-03-29T06:37:50.054Z,4.67
2023-03-29T06:40:19.213Z,4.75
2023-03-29T06:42:46.626Z,4.72
2023-03-29T06:45:14.193Z,4.78
2023-03-29T06:47:41.243Z,4.91
2023-03-29T06:50:08.646Z,4.92
2023-03-29T06:52:35.196Z,4.92
2023-03-29T06:55:02.070Z,4.96
2023-03-29T06:57:28.721Z,5.06
2023-03-29T06:59:55.267Z,5.26
2023-03-29T07:02:22.755Z,5.20
2023-03-29T07:04:49.523Z,5.36
2023-03-29T07:07:22.771Z,5.44
2023-03-29T07:09:54.225Z,5.51
2023-03-29T07:12:22.575Z,5.62
2023-03-29T07:14:49.160Z,5.69
2023-03-29T07:17:16.772Z,5.61
2023-03-29T07:19:43.534Z,5.64
2023-03-29T07:22:10.170Z,5.63
2023-03-29T07:24:36.718Z,5.66
2023-03-29T07:27:04.739Z,5.70
2023-03-29T07:29:32.201Z,5.92
2023-03-29T07:31:59.181Z,6.08
2023-03-29T07:34:25.739Z,6.22
2023-03-29T07:36:52.307Z,6.46
2023-03-29T07:39:18.922Z,6.64
2023-03-29T07:41:45.504Z,6.57
2023-03-29T07:44:12.073Z,6.97
2023-03-29T07:46:38.734Z,6.89
2023-03-29T07:49:06.149Z,6.95
2023-03-29T07:51:32.702Z,7.16
2023-03-29T07:54:00.012Z,7.28
2023-03-29T07:56:26.612Z,7.12
2023-03-29T07:58:53.179Z,7.22
2023-03-29T08:01:20.650Z,7.73
2023-03-29T08:03:47.479Z,7.94
2023-03-29T08:06:16.234Z,8.20
2023-03-29T08:08:42.782Z,8.08
2023-03-29T08:11:10.363Z,8.26
2023-03-29T08:13:37.470Z,8.37
2023-03-29T08:16:05.921Z,8.08
2023-03-29T08:18:34.704Z,8.06
2023-03-29T08:21:01.790Z,8.65
2023-03-29T08:23:30.027Z,8.59
2023-03-29T08:25:56.564Z,8.79
2023-03-29T08:28:23.410Z,8.82
2023-03-29T08:30:50.006Z,8.49
2023-03-29T08:33:17.084Z,8.70
2023-03-29T08:35:43.872Z,8.75
2023-03-29T08:38:10.656Z,9.15
2023-03-29T08:40:37.362Z,9.49
2023-03-29T08:43:24.186Z,9.70
2023-03-29T08:46:10.608Z,9.78
2023-03-29T08:48:46.044Z,9.87
2023-03-29T08:51:22.270Z,9.81
2023-03-29T08:53:54.032Z,10.02
2023-03-29T08:56:27.790Z,9.25
2023-03-29T08:58:57.982Z,9.52
2023-03-29T09:01:28.427Z,9.68
2023-03-29T09:04:06.005Z,9.03
2023-03-29T09:06:32.840Z,9.43
2023-03-29T09:08:59.409Z,9.35
2023-03-29T09:11:38.153Z,9.37
2023-03-29T09:14:23.515Z,9.08
2023-03-29T09:17:02.263Z,8.87
2023-03-29T09:19:37.323Z,9.18
2023-03-29T09:22:19.428Z,9.09
2023-03-29T09:24:57.915Z,9.10
2023-03-29T09:27:28.190Z,9.19
2023-03-29T09:30:04.908Z,9.28
2023-03-29T09:32:43.486Z,9.44
2023-03-29T09:35:25.263Z,9.31
2023-03-29T09:37:54.494Z,9.47
2023-03-29T09:40:27.853Z,9.68
2023-03-29T09:42:56.097Z,9.34
2023-03-29T09:48:05.425Z,9.38
2023-03-29T09:50:43.004Z,9.55
2023-03-29T09:53:10.630Z,9.84
2023-03-29T09:55:40.266Z,9.78
2023-03-29T09:58:18.158Z,9.54
2023-03-29T10:00:46.157Z,9.48
2023-03-29T10:03:28.581Z,9.65
2023-03-29T10:05:58.795Z,9.63
2023-03-29T10:08:31.250Z,10.05
2023-03-29T10:10:59.693Z,10.27
2023-03-29T10:13:33.128Z,10.17
2023-03-29T10:16:18.331Z,10.60
2023-03-29T10:18:44.944Z,10.12
2023-03-29T10:21:20.994Z,10.44
2023-03-29T10:23:48.986Z,10.32
2023-03-29T10:26:31.868Z,10.33
2023-03-29T10:29:01.638Z,10.62
2023-03-29T10:31:33.231Z,10.97
2023-03-29T10:34:06.441Z,10.76
2023-03-29T10:36:33.734Z,11.02
2023-03-29T10:39:06.046Z,10.97
2023-03-29T10:41:35.304Z,11.31
2023-03-29T10:44:02.189Z,11.31
2023-03-29T10:46:40.817Z,11.35
2023-03-29T10:49:19.086Z,11.19
2023-03-29T10:51:47.093Z,11.19
2023-03-29T10:54:15.953Z,11.40
2023-03-29T10:56:52.332Z,11.54
2023-03-29T10:59:22.908Z,11.68
2023-03-29T11:01:52.441Z,11.84
2023-03-29T11:04:29.765Z,11.68
2023-03-29T11:06:56.306Z,11.87
2023-03-29T11:09:33.874Z,11.48
2023-03-29T11:12:16.103Z,11.31
2023-03-29T11:15:11.322Z,11.81
2023-03-29T11:18:13.680Z,11.78
2023-03-29T11:21:10.724Z,12.02
2023-03-29T11:23:49.251Z,12.01
2023-03-29T11:26:22.653Z,12.21
2023-03-29T11:29:20.822Z,12.05
2023-03-29T11:32:11.967Z,12.47
2023-03-29T11:34:55.513Z,12.47
2023-03-29T11:37:32.988Z,12.05
2023-03-29T11:40:18.316Z,12.31
2023-03-29T11:42:48.873Z,12.34
2023-03-29T11:45:30.654Z,12.56
2023-03-29T11:47:59.416Z,12.47
2023-03-29T11:50:36.051Z,12.45
2023-03-29T11:53:08.633Z,12.34
2023-03-29T11:55:37.823Z,12.60
2023-03-29T11:58:18.809Z,12.41
2023-03-29T12:00:58.329Z,13.20
2023-03-29T12:03:58.376Z,13.24
2023-03-29T12:06:52.507Z,13.03
2023-03-29T12:09:33.549Z,13.20
2023-03-29T12:12:12.423Z,13.36
2023-03-29T12:14:56.328Z,12.93
2023-03-29T12:17:33.549Z,13.07
2023-03-29T12:20:00.137Z,12.75
2023-03-29T12:22:26.637Z,13.84
2023-03-29T12:24:55.911Z,13.36
2023-03-29T12:27:27.471Z,13.26
2023-03-29T12:30:28.082Z,13.22
2023-03-29T12:33:24.208Z,12.91
2023-03-29T12:36:09.046Z,12.94
2023-03-29T12:38:37.803Z,12.90
2023-03-29T12:41:21.875Z,13.05
2023-03-29T12:43:49.075Z,13.16
2023-03-29T12:46:25.944Z,13.15
2023-03-29T12:49:07.789Z,12.94
2023-03-29T12:51:37.046Z,13.09
2023-03-29T12:54:17.065Z,13.15
2023-03-29T12:56:52.841Z,12.94
2023-03-29T12:59:59.946Z,13.68
2023-03-29T13:02:35.050Z,13.53
2023-03-29T13:05:02.316Z,13.40
2023-03-29T13:07:32.735Z,14.01
2023-03-29T13:10:08.359Z,14.29
2023-03-29T13:12:34.843Z,14.23
2023-03-29T13:15:05.959Z,13.58
2023-03-29T13:18:06.570Z,13.92
2023-03-29T13:20:42.494Z,14.06
2023-03-29T13:23:18.027Z,14.42
2023-03-29T13:26:02.824Z,14.52
2023-03-29T13:28:44.823Z,14.64
2023-03-29T13:31:26.715Z,15.01
2023-03-29T13:34:20.413Z,14.24
2023-03-29T13:36:49.783Z,14.10
2023-03-29T13:39:22.189Z,14.19
2023-03-29T13:41:52.788Z,14.46
2023-03-29T13:44:22.324Z,14.36
2023-03-29T13:47:00.672Z,14.40
2023-03-29T13:49:31.833Z,14.15
2023-03-29T13:52:24.360Z,14.29
2023-03-29T13:55:01.832Z,14.46
2023-03-29T13:57:49.582Z,14.68
2023-03-29T14:00:23.583Z,14.68
2023-03-29T14:02:55.087Z,14.85
2023-03-29T14:05:28.355Z,14.64
2023-03-29T14:07:55.645Z,14.40
2023-03-29T14:10:37.625Z,14.12
2023-03-29T14:13:04.605Z,14.28
2023-03-29T14:15:43.882Z,14.36
2023-03-29T14:18:12.626Z,14.04
2023-03-29T14:20:44.139Z,14.19
2023-03-29T14:23:16.204Z,14.63
2023-03-29T14:25:42.807Z,14.29
2023-03-29T14:28:19.776Z,14.21
2023-03-29T14:30:50.105Z,14.34
2023-03-29T14:33:31.168Z,14.36
2023-03-29T14:36:00.445Z,14.72
2023-03-29T14:38:27.540Z,14.58
2023-03-29T14:40:58.772Z,14.64
2023-03-29T14:43:29.959Z,14.72
2023-03-29T14:45:57.801Z,14.76
2023-03-29T14:48:25.100Z,14.76
2023-03-29T14:50:52.333Z,14.86
2023-03-29T14:53:21.352Z,14.57
2023-03-29T14:55:51.810Z,14.69
2023-03-29T14:58:29.351Z,14.27
2023-03-29T15:00:56.106Z,14.54
2023-03-29T15:03:26.523Z,14.89
2023-03-29T15:06:02.781Z,14.69
2023-03-29T15:08:37.797Z,14.84
2023-03-29T15:11:14.386Z,14.47
2023-03-29T15:13:43.598Z,14.52
2023-03-29T15:16:15.014Z,14.18
2023-03-29T15:18:44.078Z,14.40
2023-03-29T15:21:13.711Z,14.31
2023-03-29T15:23:58.412Z,14.65
2023-03-29T15:26:31.082Z,14.55
2023-03-29T15:29:08.206Z,14.55
2023-03-29T15:31:42.097Z,14.54
2023-03-29T15:34:14.562Z,14.52
2023-03-29T15:36:43.302Z,14.42
2023-03-29T15:39:15.548Z,14.19
2023-03-29T15:41:43.153Z,14.25
2023-03-29T15:44:11.141Z,13.99
2023-03-29T15:46:37.932Z,13.85
2023-03-29T15:49:05.221Z,13.95
2023-03-29T15:51:32.191Z,13.88
2023-03-29T15:54:01.779Z,13.83
2023-03-29T15:56:28.936Z,13.98
2023-03-29T15:58:55.450Z,14.00
2023-03-29T16:01:33.571Z,14.24
2023-03-29T16:04:11.199Z,14.32
2023-03-29T16:06:37.851Z,14.24
2023-03-29T16:09:07.018Z,14.34
2023-03-29T16:11:34.940Z,14.18
2023-03-29T16:14:01.558Z,14.09
2023-03-29T16:16:28.146Z,14.11
2023-03-29T16:18:54.694Z,14.18
2023-03-29T16:21:22.384Z,13.97
2023-03-29T16:23:48.946Z,13.81
2023-03-29T16:26:16.862Z,13.92
2023-03-29T16:28:43.775Z,13.92
2023-03-29T16:31:12.410Z,13.98
2023-03-29T16:33:40.628Z,13.92
2023-03-29T16:36:08.122Z,13.88
2023-03-29T16:38:34.998Z,13.88
2023-03-29T16:41:01.995Z,13.82
2023-03-29T16:43:29.099Z,13.77
2023-03-29T16:45:55.689Z,13.79
2023-03-29T16:48:22.355Z,13.72
2023-03-29T16:50:49.621Z,13.65
2023-03-29T16:53:20.146Z,13.62
2023-03-29T16:55:50.005Z,13.54
2023-03-29T16:58:16.549Z,13.49
2023-03-29T17:00:46.368Z,13.48
2023-03-29T17:03:14.604Z,13.47
2023-03-29T17:05:50.424Z,13.51
2023-03-29T17:08:17.998Z,13.37
2023-03-29T17:10:45.027Z,13.29
2023-03-29T17:13:12.763Z,13.24
2023-03-29T17:15:39.984Z,13.22
2023-03-29T17:18:07.214Z,13.07
2023-03-29T17:20:33.884Z,13.09
2023-03-29T17:23:00.679Z,13.03
2023-03-29T17:25:27.321Z,13.05
2023-03-29T17:27:54.198Z,12.93
2023-03-29T17:30:20.886Z,12.92
2023-03-29T17:32:47.551Z,12.93
2023-03-29T17:35:14.217Z,12.86
2023-03-29T17:37:42.008Z,12.86
2023-03-29T17:40:13.978Z,12.79
2023-03-29T17:42:41.614Z,12.80
2023-03-29T17:45:09.451Z,12.80
2023-03-29T17:47:36.892Z,12.70
2023-03-29T17:50:04.892Z,12.75
2023-03-29T17:52:31.912Z,12.75
2023-03-29T17:54:58.446Z,12.77
2023-03-29T17:57:25.017Z,12.73
2023-03-29T17:59:51.619Z,12.73
2023-03-29T18:02:21.587Z,12.74
2023-03-29T18:04:48.814Z,12.71
2023-03-29T18:07:16.008Z,12.70
2023-03-29T18:09:42.713Z,12.70
2023-03-29T18:12:09.520Z,12.63
2023-03-29T18:14:36.168Z,12.67
2023-03-29T18:17:03.994Z,12.64
2023-03-29T18:19:30.944Z,12.62
2023-03-29T18:21:57.652Z,12.46
2023-03-29T18:24:24.151Z,12.41
2023-03-29T18:26:50.938Z,12.16
2023-03-29T18:29:17.500Z,12.17
2023-03-29T18:31:45.992Z,11.99
2023-03-29T18:34:12.544Z,11.91
2023-03-29T18:36:39.121Z,11.89
2023-03-29T18:39:05.948Z,11.85
2023-03-29T18:41:33.904Z,11.86
2023-03-29T18:44:01.035Z,11.85
2023-03-29T18:46:31.352Z,11.78
2023-03-29T18:48:59.149Z,11.90
2023-03-29T18:51:28.134Z,11.77
2023-03-29T18:53:56.187Z,11.84
2023-03-29T18:56:23.397Z,11.81
2023-03-29T18:58:50.009Z,11.90
2023-03-29T19:01:16.733Z,11.86
2023-03-29T19:03:43.571Z,11.90
2023-03-29T19:06:11.878Z,11.88
2023-03-29T19:08:41.414Z,11.84
2023-03-29T19:11:10.452Z,11.80
2023-03-29T19:13:37.145Z,11.80
2023-03-29T19:16:04.601Z,11.85
2023-03-29T19:18:31.649Z,11.85
2023-03-29T19:20:58.519Z,11.77
2023-03-29T19:23:27.612Z,11.74
2023-03-29T19:26:05.585Z,11.61
2023-03-29T19:28:33.897Z,11.59
2023-03-29T19:31:04.499Z,11.57
2023-03-29T19:33:31.453Z,11.44
2023-03-29T19:35:58.030Z,11.39
2023-03-29T19:38:24.772Z,11.29
2023-03-29T19:40:52.216Z,11.23
2023-03-29T19:43:20.772Z,11.14
2023-03-29T19:45:49.302Z,11.19
2023-03-29T19:48:22.345Z,11.12
2023-03-29T19:50:50.288Z,11.06
2023-03-29T19:53:16.983Z,11.08
2023-03-29T19:55:45.520Z,11.05
2023-03-29T19:58:12.979Z,11.06
2023-03-29T20:00:40.046Z,11.06
2023-03-29T20:03:10.680Z,11.04
2023-03-29T20:05:38.885Z,11.05
2023-03-29T20:08:06.532Z,11.06
2023-03-29T20:10:34.084Z,11.03
2023-03-29T20:13:00.846Z,10.94
2023-03-29T20:15:27.513Z,10.82
2023-03-29T20:17:59.427Z,10.86
2023-03-29T20:20:27.112Z,10.78
2023-03-29T20:23:04.558Z,10.86
2023-03-29T20:25:31.890Z,10.86
2023-03-29T20:27:59.763Z,10.73
2023-03-29T20:30:26.511Z,10.77
2023-03-29T20:32:53.091Z,10.66
2023-03-29T20:35:19.953Z,10.73
2023-03-29T20:37:46.470Z,10.72
2023-03-29T20:40:15.700Z,10.63
2023-03-29T20:42:42.277Z,10.54
2023-03-29T20:45:18.745Z,10.56
2023-03-29T20:47:50.439Z,10.57
2023-03-29T20:50:19.010Z,10.55
2023-03-29T20:52:48.335Z,10.54
2023-03-29T20:55:16.845Z,10.57
2023-03-29T20:57:43.344Z,10.50
2023-03-29T21:00:12.118Z,10.51
2023-03-29T21:02:39.367Z,10.48
2023-03-29T21:05:06.719Z,10.44
2023-03-29T21:07:33.304Z,10.49
2023-03-29T21:10:01.233Z,10.50
2023-03-29T21:12:27.761Z,10.46
2023-03-29T21:14:54.297Z,10.47
2023-03-29T21:17:20.904Z,10.49
2023-03-29T21:19:47.465Z,10.50
2023-03-29T21:22:14.625Z,10.53
2023-03-29T21:24:41.117Z,10.43
2023-03-29T21:27:07.655Z,10.49
2023-03-29T21:29:34.253Z,10.39
2023-03-29T21:32:01.035Z,10.41
2023-03-29T21:34:27.623Z,10.45
2023-03-29T21:36:54.154Z,10.30
2023-03-29T21:39:20.704Z,10.38
2023-03-29T21:41:47.250Z,10.29
2023-03-29T21:44:13.897Z,10.37
2023-03-29T21:46:40.584Z,10.36
2023-03-29T21:49:07.898Z,10.25
2023-03-29T21:51:34.383Z,10.32
2023-03-29T21:54:01.154Z,10.25
2023-03-29T21:56:28.970Z,10.21
2023-03-29T21:58:55.807Z,10.23
2023-03-29T22:01:22.454Z,10.28
2023-03-29T22:03:49.032Z,10.30
2023-03-29T22:06:15.773Z,10.24
2023-03-29T22:08:42.300Z,10.19
2023-03-29T22:11:13.939Z,10.09
2023-03-29T22:13:41.787Z,10.10
2023-03-29T22:16:09.484Z,10.09
2023-03-29T22:18:43.814Z,10.08
2023-03-29T22:21:22.626Z,9.91
2023-03-29T22:23:52.157Z,9.95
2023-03-29T22:26:21.515Z,9.96
2023-03-29T22:28:48.068Z,9.92
2023-03-29T22:31:16.954Z,9.74
2023-03-29T22:33:44.117Z,9.84
2023-03-29T22:36:13.522Z,9.84
2023-03-29T22:38:40.090Z,9.78
2023-03-29T22:41:06.651Z,9.74
2023-03-29T22:43:33.176Z,9.62
2023-03-29T22:45:59.826Z,9.74
2023-03-29T22:48:26.712Z,9.61
2023-03-29T22:50:53.230Z,9.65
2023-03-29T22:53:19.767Z,9.58
2023-03-29T22:55:46.366Z,9.64
2023-03-29T22:58:12.935Z,9.67
2023-03-29T23:00:39.751Z,9.64
2023-03-29T23:03:06.866Z,9.63
2023-03-29T23:05:34.143Z,9.59
2023-03-29T23:08:01.088Z,9.59
2023-03-29T23:10:29.235Z,9.52
2023-03-29T23:13:09.824Z,9.47
2023-03-29T23:15:47.878Z,9.49
2023-03-29T23:18:18.384Z,9.50
2023-03-29T23:20:47.251Z,9.53
2023-03-29T23:23:15.704Z,9.50
2023-03-29T23:25:43.878Z,9.47
2023-03-29T23:28:10.735Z,9.49
2023-03-29T23:30:37.432Z,9.46
2023-03-29T23:33:04.948Z,9.45
2023-03-29T23:35:32.162Z,9.52
2023-03-29T23:37:59.870Z,9.53
2023-03-29T23:40:27.902Z,9.49
2023-03-29T23:42:59.648Z,9.52
2023-03-29T23:45:29.802Z,9.55
2023-03-29T23:47:57.244Z,9.55
2023-03-29T23:50:23.846Z,9.55
2023-03-29T23:52:51.700Z,9.55
2023-03-29T23:55:18.633Z,9.55
2023-03-29T23:57:45.172Z,9.55
